KCNO/CNO METAR and TAF weather

Enter ICAO airport designator
Station Type Date Time Source
KCNO METAR 2019/02/23 02:53 UTC NOAA

KCNO 230253Z 25004KT 10SM CLR 07/M02 A3012 RMK AO2 SLP202 T00671022 53027 $


Station Type Date Time Source
KCNO Decoded METAR 2019/02/23 02:53 UTC NOAA

CHINO AIRPORT, CA, United States (KCNO) 33-58N 117-38W 207M
Feb 22, 2019 - 09:53 PM EST / 2019.02.23 0253 UTC
Wind: from the WSW (250 degrees) at 5 MPH (4 KT):0
Visibility: 10 mile(s):0
Sky conditions: clear
Temperature: 44.1 F (6.7 C)
Dew Point: 28.0 F (-2.2 C)
Relative Humidity: 52%
Pressure (altimeter): 30.12 in. Hg (1019 hPa)
Pressure tendency: 0.08 inches (2.7 hPa) higher than three hours ago
ob: KCNO 230253Z 25004KT 10SM CLR 07/M02 A3012 RMK AO2 SLP202 T00671022 53027
cycle: 3

Station Type Date Time Source
KCNO TAF UTC NOAA

Error!


Example: see airport list